Time;durP1;ratioP1;P1;durP2;ratioP2;P2;SDS_P1;SDS_P2;PMS_P1;PMS_P2;Temp;Humidity;BMP_temperature;BMP_pressure;BME280_temperature;BME280_humidity;BME280_pressure;Samples;Min_cycle;Max_cycle;Signal;HPM_P1;HPM_P2
2022/09/20 00:01:30;;;;;;;3.83;2.30;;;;;;;9.32;nan;98583.75;5032826;28;20227;-71
2022/09/20 00:03:58;;;;;;;3.93;2.20;;;;;;;9.22;nan;98578.81;5033536;28;20236;-71
2022/09/20 00:06:29;;;;;;;3.17;2.10;;;;;;;9.28;nan;98572.69;5035113;28;20202;-71
2022/09/20 00:08:56;;;;;;;6.27;2.70;;;;;;;9.25;nan;98575.75;5037115;28;20190;-71
2022/09/20 00:11:25;;;;;;;3.57;2.37;;;;;;;9.21;nan;98569.22;5036449;28;20225;-71
2022/09/20 00:13:54;;;;;;;3.53;2.20;;;;;;;9.23;nan;98567.16;5036494;28;20206;-71
2022/09/20 00:16:30;;;;;;;3.20;2.03;;;;;;;9.23;nan;98561.06;5036051;28;20718;-71
2022/09/20 00:18:58;;;;;;;4.37;2.77;;;;;;;9.17;nan;98572.44;5036209;28;20185;-71
2022/09/20 00:21:28;;;;;;;6.07;2.40;;;;;;;9.12;nan;98570.41;5036548;28;20228;-71
2022/09/20 00:23:56;;;;;;;5.07;2.43;;;;;;;9.08;nan;98571.81;5036295;28;20205;-71
2022/09/20 00:26:22;;;;;;;3.20;2.10;;;;;;;9.06;nan;98568.50;5035992;28;20665;-71
2022/09/20 00:28:50;;;;;;;5.53;2.80;;;;;;;9.09;nan;98572.63;5035953;28;20684;-71
2022/09/20 00:31:17;;;;;;;2.63;2.30;;;;;;;9.10;nan;98571.63;5035726;28;20238;-71
2022/09/20 00:36:28;;;;;;;5.87;2.90;;;;;;;9.08;nan;98568.31;5035877;28;20561;-71
2022/09/20 00:39:02;;;;;;;3.60;2.30;;;;;;;9.05;nan;98566.09;5036061;28;20208;-71
2022/09/20 00:41:31;;;;;;;3.63;2.40;;;;;;;9.08;nan;98570.97;5035619;28;20230;-71
2022/09/20 00:43:59;;;;;;;3.23;2.17;;;;;;;9.10;nan;98571.63;5035829;28;20205;-72
2022/09/20 00:46:44;;;;;;;4.13;2.30;;;;;;;9.15;nan;98577.16;5035585;28;20728;-71
2022/09/20 00:49:18;;;;;;;5.43;2.43;;;;;;;9.17;nan;98567.97;5035776;28;20206;-71
2022/09/20 00:51:50;;;;;;;4.83;2.27;;;;;;;9.14;nan;98565.69;5035920;28;20212;-71
2022/09/20 00:54:20;;;;;;;3.43;2.17;;;;;;;9.26;nan;98561.47;5035464;28;20236;-71
2022/09/20 00:56:46;;;;;;;6.60;2.97;;;;;;;9.28;nan;98563.94;5034667;28;20239;-71
2022/09/20 00:59:21;;;;;;;5.50;2.17;;;;;;;9.25;nan;98562.50;5035592;28;20213;-71
2022/09/20 01:01:52;;;;;;;4.23;2.40;;;;;;;9.21;nan;98573.69;5034211;28;20641;-71
2022/09/20 01:04:21;;;;;;;4.60;2.40;;;;;;;9.25;nan;98565.16;5035608;28;20190;-71
2022/09/20 01:06:51;;;;;;;4.87;1.83;;;;;;;9.29;nan;98568.22;5035869;28;20236;-71
2022/09/20 01:09:17;;;;;;;5.07;2.40;;;;;;;9.24;nan;98566.16;5035488;28;20599;-71
2022/09/20 01:11:44;;;;;;;4.27;2.30;;;;;;;9.19;nan;98565.94;5035138;28;20569;-71
2022/09/20 01:14:15;;;;;;;5.80;2.40;;;;;;;9.23;nan;98558.41;5035401;28;20224;-71
2022/09/20 01:16:42;;;;;;;7.53;2.40;;;;;;;9.24;nan;98562.69;5033839;28;20248;-71
2022/09/20 01:19:19;;;;;;;5.27;2.10;;;;;;;9.23;nan;98559.22;5034281;28;20210;-71
2022/09/20 01:21:48;;;;;;;5.00;2.20;;;;;;;9.31;nan;98566.19;5034221;28;20197;-71
2022/09/20 01:24:50;;;;;;;5.67;2.23;;;;;;;9.13;nan;98566.72;5034057;28;20221;-71
2022/09/20 01:27:22;;;;;;;4.73;2.33;;;;;;;9.22;nan;98567.38;5034168;28;20189;-71
2022/09/20 01:30:09;;;;;;;6.37;2.07;;;;;;;9.16;nan;98574.28;5035133;28;20237;-72
2022/09/20 01:32:46;;;;;;;5.50;2.30;;;;;;;9.15;nan;98567.34;5035084;28;20216;-72
2022/09/20 01:35:16;;;;;;;4.77;2.03;;;;;;;9.13;nan;98563.25;5035364;28;20217;-71
2022/09/20 01:38:05;;;;;;;4.43;2.30;;;;;;;9.12;nan;98566.91;5035225;28;20202;-71
2022/09/20 01:40:37;;;;;;;5.63;2.27;;;;;;;9.07;nan;98569.34;5033752;28;20230;-71
2022/09/20 01:43:36;;;;;;;5.57;2.40;;;;;;;9.09;nan;98562.03;5034432;28;20209;-71
2022/09/20 01:46:18;;;;;;;7.03;2.67;;;;;;;9.11;nan;98559.97;5033838;28;20557;-71
2022/09/20 01:48:44;;;;;;;6.17;2.40;;;;;;;9.07;nan;98556.09;5033664;28;20190;-71
2022/09/20 01:51:46;;;;;;;4.57;2.33;;;;;;;9.13;nan;98565.88;5034587;28;20226;-71
2022/09/20 01:54:40;;;;;;;6.07;2.33;;;;;;;9.10;nan;98561.00;5034740;28;20190;-71
2022/09/20 01:57:38;;;;;;;4.33;1.93;;;;;;;9.07;nan;98561.38;5034511;28;20230;-71
2022/09/20 02:00:10;;;;;;;5.33;2.33;;;;;;;9.09;nan;98559.38;5034476;28;20619;-71
2022/09/20 02:03:04;;;;;;;5.53;2.10;;;;;;;9.16;nan;98555.72;5034509;28;20206;-71
2022/09/20 02:05:43;;;;;;;4.77;2.20;;;;;;;9.15;nan;98559.38;5034512;28;20193;-71
2022/09/20 02:08:22;;;;;;;4.80;1.97;;;;;;;9.18;nan;98556.34;5033354;28;20194;-71
2022/09/20 02:11:04;;;;;;;5.83;2.00;;;;;;;9.21;nan;98565.72;5034925;28;20238;-71
2022/09/20 02:13:46;;;;;;;7.03;2.10;;;;;;;9.27;nan;98554.31;5034379;28;20240;-71
2022/09/20 02:16:27;;;;;;;2.70;1.87;;;;;;;9.23;nan;98561.06;5034154;28;20229;-71
2022/09/20 02:19:18;;;;;;;7.90;2.57;;;;;;;9.25;nan;98559.03;5034189;28;20391;-71
2022/09/20 02:22:06;;;;;;;4.40;2.30;;;;;;;9.26;nan;98563.31;5034194;28;20190;-71
2022/09/20 02:24:50;;;;;;;5.47;2.23;;;;;;;9.35;nan;98557.63;5034114;28;20201;-71
2022/09/20 02:27:56;;;;;;;3.73;1.80;;;;;;;9.40;nan;98554.38;5033772;28;20633;-71
2022/09/20 02:30:54;;;;;;;4.87;2.10;;;;;;;9.39;nan;98561.53;5026262;28;20245;-71
2022/09/20 02:33:49;;;;;;;6.10;2.23;;;;;;;9.43;nan;98553.97;5033993;28;20209;-71
2022/09/20 02:36:48;;;;;;;3.73;1.73;;;;;;;9.35;nan;98557.63;5032571;28;20213;-71
2022/09/20 02:39:24;;;;;;;4.73;1.97;;;;;;;9.40;nan;98559.69;5032316;28;20205;-71
2022/09/20 02:42:15;;;;;;;4.33;1.77;;;;;;;9.41;nan;98558.69;5032897;28;20213;-71
2022/09/20 02:45:07;;;;;;;5.40;1.83;;;;;;;9.33;nan;98561.50;5033801;28;20269;-71
2022/09/20 02:47:43;;;;;;;6.30;1.60;;;;;;;9.39;nan;98564.19;5033554;28;20193;-71
2022/09/20 02:50:53;;;;;;;2.80;1.70;;;;;;;9.44;nan;98556.44;5033669;28;20228;-71
2022/09/20 02:53:46;;;;;;;4.23;1.60;;;;;;;9.36;nan;98553.97;5011060;28;20210;-71
2022/09/20 02:56:36;;;;;;;6.33;1.60;;;;;;;9.40;nan;98563.16;5033663;28;20280;-71
2022/09/20 02:59:05;;;;;;;5.90;1.80;;;;;;;9.39;nan;98566.84;5033272;28;20190;-71
2022/09/20 03:02:00;;;;;;;4.30;1.63;;;;;;;9.41;nan;98556.03;5033552;28;20206;-71
2022/09/20 03:04:59;;;;;;;3.73;1.70;;;;;;;9.24;nan;98560.03;5033578;28;20194;-71
2022/09/20 03:07:44;;;;;;;4.40;1.70;;;;;;;9.14;nan;98570.22;5033287;28;20182;-71
2022/09/20 03:10:22;;;;;;;2.77;1.70;;;;;;;9.05;nan;98566.88;5033054;28;20236;-71
2022/09/20 03:13:22;;;;;;;3.27;1.40;;;;;;;9.07;nan;98566.69;5033086;28;20737;-71
2022/09/20 03:15:58;;;;;;;5.63;1.60;;;;;;;9.00;nan;98565.84;5033302;28;20229;-71
2022/09/20 03:19:00;;;;;;;4.33;1.73;;;;;;;9.06;nan;98571.16;5033432;28;20213;-71
2022/09/20 03:21:52;;;;;;;3.27;1.80;;;;;;;8.94;nan;98566.63;5031897;28;20229;-71
2022/09/20 03:24:44;;;;;;;4.43;1.60;;;;;;;8.97;nan;98575.00;5033044;28;20593;-71
2022/09/20 03:27:14;;;;;;;3.80;1.80;;;;;;;9.02;nan;98574.41;5031793;28;20213;-71
2022/09/20 03:30:18;;;;;;;3.37;1.20;;;;;;;9.09;nan;98572.63;5032859;28;20237;-71
2022/09/20 03:32:58;;;;;;;5.03;1.47;;;;;;;9.15;nan;98582.44;5033555;28;20218;-71
2022/09/20 03:36:07;;;;;;;7.47;1.87;;;;;;;9.25;nan;98589.03;5016104;28;20190;-72
2022/09/20 03:38:54;;;;;;;3.87;1.40;;;;;;;9.31;nan;98579.44;5032926;28;20638;-71
2022/09/20 03:41:52;;;;;;;4.53;1.73;;;;;;;9.42;nan;98581.53;5035310;28;20230;-71
2022/09/20 03:44:42;;;;;;;5.30;1.47;;;;;;;9.44;nan;98580.31;5031888;28;20206;-71
2022/09/20 03:47:35;;;;;;;4.80;1.57;;;;;;;9.38;nan;98581.13;5036913;28;20208;-72
2022/09/20 03:50:23;;;;;;;3.10;1.47;;;;;;;9.40;nan;98576.44;5035885;28;20229;-71
2022/09/20 03:53:06;;;;;;;3.13;1.37;;;;;;;9.40;nan;98575.59;5036874;28;20560;-71
2022/09/20 03:56:08;;;;;;;5.40;1.50;;;;;;;9.41;nan;98572.75;5035677;28;20198;-71
2022/09/20 03:58:52;;;;;;;3.10;1.70;;;;;;;9.45;nan;98587.25;5036482;28;20582;-71
2022/09/20 04:01:37;;;;;;;4.30;1.57;;;;;;;9.44;nan;98579.50;5036460;28;20233;-71
2022/09/20 04:04:14;;;;;;;5.10;1.80;;;;;;;9.43;nan;98584.00;5037051;28;20198;-71
2022/09/20 04:07:08;;;;;;;5.23;1.60;;;;;;;9.52;nan;98595.25;5019367;28;20608;-71
2022/09/20 04:09:52;;;;;;;8.30;1.50;;;;;;;9.54;nan;98593.19;5035628;28;20240;-71
2022/09/20 04:12:47;;;;;;;4.07;1.83;;;;;;;9.50;nan;98589.34;5036505;28;20201;-71
2022/09/20 04:15:29;;;;;;;5.27;1.90;;;;;;;9.49;nan;98591.16;5036214;28;20187;-71
2022/09/20 04:18:18;;;;;;;5.47;1.47;;;;;;;9.45;nan;98587.25;5036374;28;20190;-71
2022/09/20 04:21:21;;;;;;;3.20;1.60;;;;;;;9.46;nan;98590.75;5036366;28;20276;-71
2022/09/20 04:24:13;;;;;;;6.10;1.67;;;;;;;9.57;nan;98596.31;5032669;28;20209;-71
2022/09/20 04:26:48;;;;;;;5.63;2.00;;;;;;;9.61;nan;98594.88;5032516;28;20202;-71
2022/09/20 04:29:39;;;;;;;4.33;1.70;;;;;;;9.55;nan;98600.97;5035640;28;20208;-71
2022/09/20 04:32:23;;;;;;;5.30;1.40;;;;;;;9.54;nan;98598.50;5036085;28;20202;-71
2022/09/20 04:37:56;;;;;;;4.73;1.80;;;;;;;9.59;nan;98598.75;5036069;28;20587;-71
2022/09/20 04:40:44;;;;;;;5.10;1.93;;;;;;;9.57;nan;98601.59;5035707;28;20591;-71
2022/09/20 04:43:18;;;;;;;3.43;1.60;;;;;;;9.59;nan;98596.09;5036006;28;20574;-71
2022/09/20 04:46:15;;;;;;;3.53;1.87;;;;;;;9.58;nan;98602.41;5034534;28;20213;-71
2022/09/20 04:49:14;;;;;;;5.13;1.93;;;;;;;9.50;nan;98613.22;5024532;28;20583;-71
2022/09/20 04:52:03;;;;;;;3.70;2.03;;;;;;;9.48;nan;98609.94;5036216;28;20695;-71
2022/09/20 04:55:00;;;;;;;5.00;2.00;;;;;;;9.50;nan;98614.03;5035465;28;20206;-71
2022/09/20 04:57:45;;;;;;;6.50;2.20;;;;;;;9.44;nan;98616.66;5035140;28;20214;-71
2022/09/20 05:01:01;;;;;;;4.20;2.10;;;;;;;9.44;nan;98625.44;5035127;28;20226;-71
2022/09/20 05:03:53;;;;;;;4.23;1.90;;;;;;;9.50;nan;98616.69;5005005;28;20210;-71
2022/09/20 05:06:56;;;;;;;5.97;2.43;;;;;;;9.49;nan;98623.00;5032891;28;20209;-72
2022/09/20 05:09:41;;;;;;;3.93;2.10;;;;;;;9.44;nan;98628.09;5035049;28;20194;-71
2022/09/20 05:12:35;;;;;;;4.63;2.00;;;;;;;9.38;nan;98620.09;5034552;28;20593;-71
2022/09/20 05:15:27;;;;;;;7.70;2.40;;;;;;;9.45;nan;98624.41;5033580;28;20198;-71
2022/09/20 05:17:57;;;;;;;3.17;1.97;;;;;;;9.45;nan;98631.56;5035400;28;20224;-71
2022/09/20 05:20:50;;;;;;;4.20;2.40;;;;;;;9.42;nan;98627.47;5034985;28;20226;-71
2022/09/20 05:23:36;;;;;;;3.67;2.30;;;;;;;9.34;nan;98632.13;5034306;28;20192;-71
2022/09/20 05:26:14;;;;;;;6.47;2.30;;;;;;;9.35;nan;98629.28;5033119;28;20206;-71
2022/09/20 05:29:04;;;;;;;6.47;2.70;;;;;;;9.40;nan;98639.28;5034274;28;20186;-71
2022/09/20 05:31:55;;;;;;;9.43;2.73;;;;;;;9.40;nan;98633.97;5034304;28;20217;-71
2022/09/20 05:34:42;;;;;;;4.53;2.33;;;;;;;9.37;nan;98639.69;5034248;28;20206;-71
2022/09/20 05:37:39;;;;;;;6.77;2.57;;;;;;;9.37;nan;98634.41;5034462;28;20217;-71
2022/09/20 05:41:00;;;;;;;6.30;2.63;;;;;;;9.41;nan;98641.75;5033416;28;20257;-71
2022/09/20 05:43:50;;;;;;;10.07;2.60;;;;;;;9.41;nan;98640.94;5012136;28;20202;-71
2022/09/20 05:46:55;;;;;;;9.03;2.80;;;;;;;9.43;nan;98650.34;5032984;28;20213;-71
2022/09/20 05:49:40;;;;;;;5.17;2.63;;;;;;;9.47;nan;98640.16;5024620;28;20201;-71
2022/09/20 05:52:20;;;;;;;9.27;2.73;;;;;;;9.53;nan;98644.66;5034345;28;20274;-71
2022/09/20 05:54:55;;;;;;;5.00;2.57;;;;;;;9.56;nan;98646.94;5033968;28;20282;-71
2022/09/20 05:57:34;;;;;;;5.00;2.53;;;;;;;9.55;nan;98653.25;5034180;28;20210;-71
2022/09/20 06:00:04;;;;;;;5.63;2.40;;;;;;;9.62;nan;98649.59;5032647;28;20236;-71
2022/09/20 06:02:33;;;;;;;10.83;3.00;;;;;;;9.71;nan;98659.03;5034344;28;20300;-71
2022/09/20 06:05:18;;;;;;;5.97;2.20;;;;;;;9.81;nan;98656.81;5033200;28;20305;-71
2022/09/20 06:08:12;;;;;;;8.07;2.90;;;;;;;9.76;nan;98659.25;5034003;28;20301;-71
2022/09/20 06:10:46;;;;;;;6.57;2.67;;;;;;;9.77;nan;98655.56;5033614;28;20222;-71
2022/09/20 06:13:34;;;;;;;9.63;2.67;;;;;;;9.89;nan;98651.34;5033637;28;20196;-71
2022/09/20 06:16:05;;;;;;;8.33;2.83;;;;;;;9.89;nan;98661.13;5033265;28;20657;-71
2022/09/20 06:19:01;;;;;;;8.30;2.80;;;;;;;9.94;nan;98661.34;5033510;28;20186;-71
2022/09/20 06:21:54;;;;;;;8.67;2.53;;;;;;;9.95;nan;98663.81;5032184;28;20234;-71
2022/09/20 06:24:32;;;;;;;8.90;2.57;;;;;;;10.02;nan;98669.13;5033672;28;20212;-71
2022/09/20 06:27:05;;;;;;;6.40;2.67;;;;;;;10.07;nan;98664.91;5033859;28;20194;-71
2022/09/20 06:29:39;;;;;;;8.93;2.70;;;;;;;10.12;nan;98662.47;5033540;28;20229;-72
2022/09/20 06:32:05;;;;;;;10.93;2.70;;;;;;;10.17;nan;98672.47;5033421;28;20198;-71
2022/09/20 06:34:32;;;;;;;8.40;2.60;;;;;;;10.19;nan;98670.44;5033495;28;20206;-71
2022/09/20 06:42:50;;;;;;;7.50;2.43;;;;;;;10.33;nan;98683.53;5033220;28;20181;-71
2022/09/20 06:45:16;;;;;;;5.57;2.20;;;;;;;10.41;nan;98677.22;5033245;28;20576;-71
2022/09/20 06:47:42;;;;;;;8.60;2.43;;;;;;;10.48;nan;98678.03;5033470;28;20202;-71
2022/09/20 06:50:16;;;;;;;5.53;2.30;;;;;;;10.50;nan;98681.34;5033384;28;20257;-71
2022/09/20 06:52:43;;;;;;;5.03;2.60;;;;;;;10.44;nan;98695.41;5032980;28;20586;-71
2022/09/20 06:55:18;;;;;;;4.30;2.40;;;;;;;10.44;nan;98692.75;5032222;28;20209;-71
2022/09/20 06:57:45;;;;;;;6.50;2.53;;;;;;;10.47;nan;98689.72;5033465;28;20213;-71
2022/09/20 07:00:14;;;;;;;7.97;2.57;;;;;;;10.46;nan;98688.88;5032945;28;20229;-71
2022/09/20 07:02:42;;;;;;;10.13;2.80;;;;;;;10.43;nan;98691.13;5033165;28;20220;-71
2022/09/20 07:05:20;;;;;;;4.13;2.33;;;;;;;10.51;nan;98686.41;5032801;28;20545;-71
2022/09/20 07:07:46;;;;;;;7.43;2.93;;;;;;;10.58;nan;98695.25;5033765;28;20190;-71
2022/09/20 07:10:14;;;;;;;9.83;2.73;;;;;;;10.78;nan;98692.59;5032977;28;20727;-71
2022/09/20 07:12:40;;;;;;;7.77;2.53;;;;;;;10.86;nan;98695.06;5032823;28;20641;-71
2022/09/20 07:15:08;;;;;;;6.67;2.50;;;;;;;10.79;nan;98696.88;5033440;28;20216;-71
2022/09/20 07:17:34;;;;;;;6.53;2.67;;;;;;;11.03;nan;98696.25;5037233;28;20232;-71
2022/09/20 07:20:01;;;;;;;8.70;2.53;;;;;;;10.98;nan;98696.06;5037218;28;20230;-71
2022/09/20 07:22:27;;;;;;;9.23;2.60;;;;;;;10.81;nan;98700.16;5036920;28;20775;-71
2022/09/20 07:24:54;;;;;;;8.17;2.67;;;;;;;10.99;nan;98703.00;5036922;28;20213;-71
2022/09/20 07:27:21;;;;;;;8.43;2.60;;;;;;;11.02;nan;98707.94;5037437;28;20206;-71
2022/09/20 07:29:47;;;;;;;9.30;2.77;;;;;;;10.94;nan;98710.78;5036803;28;20238;-71
2022/09/20 07:32:14;;;;;;;5.93;2.27;;;;;;;11.13;nan;98704.66;5037085;28;20210;-71
2022/09/20 07:34:40;;;;;;;6.60;2.63;;;;;;;11.31;nan;98712.00;5037447;28;20256;-71
2022/09/20 07:37:06;;;;;;;5.50;2.20;;;;;;;11.16;nan;98714.88;5036946;28;20312;-71
2022/09/20 07:39:33;;;;;;;9.93;2.83;;;;;;;11.04;nan;98708.56;5036964;28;20228;-71
2022/09/20 07:42:00;;;;;;;14.37;3.70;;;;;;;11.04;nan;98706.69;5036420;28;20669;-71
2022/09/20 07:44:27;;;;;;;8.03;2.67;;;;;;;11.06;nan;98706.50;5036621;28;20691;-71
2022/09/20 07:46:54;;;;;;;11.33;2.73;;;;;;;11.12;nan;98708.31;5036803;28;20202;-71
2022/09/20 07:49:22;;;;;;;7.50;2.67;;;;;;;11.23;nan;98708.50;5036634;28;20210;-71
2022/09/20 07:51:49;;;;;;;7.73;2.70;;;;;;;11.31;nan;98715.47;5036956;28;20217;-71
2022/09/20 07:54:16;;;;;;;8.40;2.97;;;;;;;11.37;nan;98706.66;5036258;28;20308;-71
2022/09/20 07:56:43;;;;;;;7.23;1.97;;;;;;;11.39;nan;98719.75;5036658;28;20233;-71
2022/09/20 07:59:10;;;;;;;9.37;2.60;;;;;;;11.50;nan;98711.13;5036644;28;20205;-71
2022/09/20 08:01:37;;;;;;;7.10;2.87;;;;;;;11.70;nan;98718.06;5036499;28;20205;-71
2022/09/20 08:04:05;;;;;;;8.27;2.50;;;;;;;11.89;nan;98721.69;5036468;28;20209;-71
2022/09/20 08:06:35;;;;;;;10.03;2.40;;;;;;;11.78;nan;98723.16;5036486;28;20205;-71
2022/09/20 08:09:01;;;;;;;9.47;2.83;;;;;;;11.99;nan;98728.22;5036436;28;20206;-71
2022/09/20 08:11:29;;;;;;;7.30;2.30;;;;;;;11.94;nan;98727.22;5036610;28;20229;-71
2022/09/20 08:13:58;;;;;;;11.37;3.00;;;;;;;12.05;nan;98730.03;5036331;28;20201;-71
2022/09/20 08:16:26;;;;;;;7.03;2.50;;;;;;;12.12;nan;98738.81;5036320;28;20206;-71
2022/09/20 08:18:58;;;;;;;7.97;2.47;;;;;;;12.12;nan;98741.47;5036304;28;20202;-71
2022/09/20 08:21:33;;;;;;;7.47;2.63;;;;;;;12.05;nan;98738.03;5036140;28;20229;-71
2022/09/20 08:24:00;;;;;;;8.00;2.60;;;;;;;12.05;nan;98746.03;5036298;28;20194;-71
2022/09/20 08:26:28;;;;;;;9.23;2.80;;;;;;;12.26;nan;98750.22;5035538;28;20210;-71
2022/09/20 08:28:57;;;;;;;8.63;2.30;;;;;;;12.28;nan;98746.31;5035750;28;20665;-71
2022/09/20 08:31:26;;;;;;;8.23;2.30;;;;;;;12.26;nan;98744.91;5035765;28;20237;-71
2022/09/20 08:33:54;;;;;;;8.47;2.40;;;;;;;12.11;nan;98744.38;5035646;28;20690;-72
2022/09/20 08:36:23;;;;;;;9.27;2.37;;;;;;;12.13;nan;98745.78;5035519;28;20238;-71
2022/09/20 08:38:50;;;;;;;4.53;1.97;;;;;;;12.11;nan;98747.84;5035552;28;20238;-71
2022/09/20 08:41:35;;;;;;;4.93;1.80;;;;;;;12.33;nan;98743.00;5035636;28;20313;-71
2022/09/20 08:44:05;;;;;;;6.67;1.83;;;;;;;11.94;nan;98736.00;5035763;28;20198;-71
2022/09/20 08:46:35;;;;;;;6.67;2.10;;;;;;;12.01;nan;98738.66;5035459;28;20191;-71
2022/09/20 08:49:06;;;;;;;5.37;2.10;;;;;;;12.14;nan;98741.25;5035741;28;20206;-71
2022/09/20 08:51:40;;;;;;;4.40;1.70;;;;;;;12.29;nan;98739.16;5035877;28;20256;-71
2022/09/20 08:54:11;;;;;;;7.47;1.80;;;;;;;12.03;nan;98741.94;5035686;28;20194;-71
2022/09/20 08:56:37;;;;;;;5.00;1.93;;;;;;;12.28;nan;98743.66;5034466;28;20206;-71
2022/09/20 08:59:06;;;;;;;6.90;1.97;;;;;;;12.65;nan;98739.31;5035399;28;20615;-71
2022/09/20 09:01:33;;;;;;;5.70;1.73;;;;;;;12.69;nan;98730.69;5035389;28;20292;-71
2022/09/20 09:04:13;;;;;;;9.73;2.17;;;;;;;12.63;nan;98734.22;5036289;28;20213;-71
2022/09/20 09:06:40;;;;;;;5.50;1.70;;;;;;;12.57;nan;98736.94;5035248;28;20243;-71
2022/09/20 09:09:07;;;;;;;6.97;1.50;;;;;;;12.37;nan;98741.56;5035319;28;20202;-71
2022/09/20 09:11:38;;;;;;;4.77;1.70;;;;;;;12.34;nan;98736.66;5035350;28;20213;-71
2022/09/20 09:16:52;;;;;;;10.03;1.80;;;;;;;11.95;nan;98740.34;5033064;28;20206;-71
2022/09/20 09:19:43;;;;;;;6.83;1.93;;;;;;;11.86;nan;98738.94;5034882;28;20661;-71
2022/09/20 09:22:10;;;;;;;6.03;1.43;;;;;;;11.76;nan;98732.41;5035211;28;20217;-71
2022/09/20 09:24:36;;;;;;;5.67;1.70;;;;;;;11.97;nan;98740.91;5035095;28;20204;-71
2022/09/20 09:27:21;;;;;;;4.87;1.80;;;;;;;11.77;nan;98734.84;5034738;28;20518;-71
2022/09/20 09:29:52;;;;;;;6.47;1.80;;;;;;;11.83;nan;98734.00;5034572;28;20248;-71
2022/09/20 09:32:31;;;;;;;7.50;1.90;;;;;;;11.94;nan;98735.22;5034896;28;20232;-71
2022/09/20 09:35:30;;;;;;;6.77;1.60;;;;;;;12.20;nan;98732.44;5034868;28;20281;-71
2022/09/20 09:38:00;;;;;;;7.00;1.97;;;;;;;12.52;nan;98729.56;5034048;28;20246;-72
2022/09/20 09:40:30;;;;;;;5.87;1.67;;;;;;;13.02;nan;98725.16;5034594;28;20233;-71
2022/09/20 09:43:02;;;;;;;4.17;1.70;;;;;;;12.92;nan;98738.94;5034218;28;20200;-71
2022/09/20 09:45:37;;;;;;;2.50;1.30;;;;;;;13.01;nan;98729.66;5034306;28;20657;-71
2022/09/20 09:48:19;;;;;;;3.70;1.53;;;;;;;12.94;nan;98736.06;5034594;28;20271;-71
2022/09/20 09:50:47;;;;;;;7.40;1.50;;;;;;;12.75;nan;98735.16;5034177;28;20232;-71
2022/09/20 09:53:22;;;;;;;5.73;1.73;;;;;;;12.54;nan;98737.34;5034445;28;20234;-71
2022/09/20 09:56:02;;;;;;;5.67;1.50;;;;;;;12.50;nan;98736.16;5034596;28;20201;-71
2022/09/20 09:58:47;;;;;;;6.10;1.57;;;;;;;12.83;nan;98737.56;5032860;28;20215;-71
2022/09/20 10:01:32;;;;;;;6.23;1.50;;;;;;;12.86;nan;98734.47;5018400;28;20648;-71
2022/09/20 10:04:25;;;;;;;7.67;1.73;;;;;;;12.97;nan;98739.13;5033976;28;20212;-71
2022/09/20 10:06:55;;;;;;;4.33;1.40;;;;;;;12.73;nan;98734.56;5034093;28;20193;-71
2022/09/20 10:10:00;;;;;;;6.47;1.60;;;;;;;12.84;nan;98727.72;5033812;28;20198;-71
2022/09/20 10:12:29;;;;;;;6.17;1.80;;;;;;;13.22;nan;98726.59;5030373;28;20212;-71
2022/09/20 10:15:09;;;;;;;5.27;1.50;;;;;;;13.05;nan;98725.53;5033646;28;20659;-71
2022/09/20 10:17:38;;;;;;;6.33;1.60;;;;;;;13.33;nan;98727.72;5034594;28;20209;-73
2022/09/20 10:20:27;;;;;;;4.80;1.57;;;;;;;13.05;nan;98724.69;5034681;28;20228;-71
2022/09/20 10:23:08;;;;;;;3.83;1.73;;;;;;;13.21;nan;98719.59;5033738;28;20192;-71
2022/09/20 10:25:53;;;;;;;6.80;1.60;;;;;;;13.22;nan;98720.44;5034093;28;20224;-71
2022/09/20 10:28:49;;;;;;;4.63;1.50;;;;;;;13.16;nan;98711.44;5033417;28;20197;-71
2022/09/20 10:31:34;;;;;;;5.07;1.60;;;;;;;13.32;nan;98720.75;5032445;28;20242;-71
2022/09/20 10:34:19;;;;;;;4.13;1.53;;;;;;;13.58;nan;98720.50;5033664;28;20667;-71
2022/09/20 10:36:57;;;;;;;5.07;1.43;;;;;;;13.71;nan;98721.16;5033605;28;20199;-71
2022/09/20 10:39:40;;;;;;;5.53;1.33;;;;;;;13.34;nan;98719.50;5033495;28;20189;-72
2022/09/20 10:45:18;;;;;;;4.20;1.60;;;;;;;13.27;nan;98724.09;5032196;28;20218;-71
2022/09/20 10:48:32;;;;;;;4.73;1.30;;;;;;;13.46;nan;98720.41;5033142;28;20185;-71
2022/09/20 10:50:58;;;;;;;6.17;1.50;;;;;;;13.49;nan;98717.31;5011100;28;20232;-71
2022/09/20 10:53:43;;;;;;;6.63;1.67;;;;;;;13.32;nan;98726.91;5030417;28;20676;-72
2022/09/20 10:56:27;;;;;;;7.43;1.77;;;;;;;13.39;nan;98725.00;5033264;28;20206;-71
2022/09/20 10:58:59;;;;;;;5.13;1.37;;;;;;;13.41;nan;98722.94;5032026;28;20213;-72
2022/09/20 11:01:35;;;;;;;8.17;1.80;;;;;;;13.49;nan;98721.81;5032767;28;20247;-71
2022/09/20 11:04:32;;;;;;;5.03;1.60;;;;;;;13.48;nan;98722.88;5033181;28;20208;-71
2022/09/20 11:07:35;;;;;;;6.10;1.60;;;;;;;13.79;nan;98720.88;5032231;28;20251;-72
2022/09/20 11:10:16;;;;;;;6.17;1.60;;;;;;;13.80;nan;98717.16;5032921;28;20235;-71
2022/09/20 11:12:50;;;;;;;5.73;1.50;;;;;;;13.68;nan;98718.94;5033307;28;20197;-71
2022/09/20 11:15:24;;;;;;;4.03;1.33;;;;;;;13.67;nan;98720.00;5033310;28;20194;-71
2022/09/20 11:18:00;;;;;;;5.23;1.70;;;;;;;13.81;nan;98724.16;5032923;28;20700;-71
2022/09/20 11:20:35;;;;;;;3.83;1.50;;;;;;;13.61;nan;98717.38;5033069;28;20225;-71
2022/09/20 11:23:10;;;;;;;7.43;1.73;;;;;;;13.66;nan;98722.88;5033235;28;20190;-71
2022/09/20 11:25:46;;;;;;;5.87;1.80;;;;;;;13.61;nan;98715.50;5033248;28;20201;-71
2022/09/20 11:28:19;;;;;;;8.57;2.13;;;;;;;13.83;nan;98719.38;5033107;28;20715;-72
2022/09/20 11:31:08;;;;;;;6.90;1.70;;;;;;;13.81;nan;98713.47;5033005;28;20236;-71
2022/09/20 11:33:42;;;;;;;4.63;1.40;;;;;;;13.85;nan;98711.97;5031799;28;20194;-71
2022/09/20 11:36:17;;;;;;;6.47;1.60;;;;;;;13.91;nan;98710.25;5031970;28;20190;-71
2022/09/20 11:38:52;;;;;;;7.80;1.67;;;;;;;13.86;nan;98702.06;5032404;28;20216;-71
2022/09/20 11:41:24;;;;;;;4.80;1.60;;;;;;;14.10;nan;98711.84;5031814;28;20313;-71
2022/09/20 11:43:52;;;;;;;5.57;1.67;;;;;;;13.94;nan;98704.44;5032809;28;20275;-71
2022/09/20 11:46:58;;;;;;;5.27;1.30;;;;;;;13.81;nan;98715.31;5032839;28;20213;-72
2022/09/20 11:49:54;;;;;;;5.43;1.70;;;;;;;14.05;nan;98717.88;5015276;28;20205;-71
2022/09/20 11:52:29;;;;;;;7.60;1.70;;;;;;;14.12;nan;98712.44;5031916;28;20232;-71
2022/09/20 11:55:19;;;;;;;8.57;1.70;;;;;;;14.35;nan;98716.09;5032836;28;20190;-72
2022/09/20 11:57:46;;;;;;;5.57;1.60;;;;;;;14.25;nan;98712.31;5029432;28;20599;-71
2022/09/20 12:00:12;;;;;;;5.57;1.60;;;;;;;14.05;nan;98711.72;5033110;28;20226;-72
2022/09/20 12:02:49;;;;;;;3.60;1.60;;;;;;;14.26;nan;98704.06;5035506;28;20268;-71
2022/09/20 12:05:32;;;;;;;6.50;1.83;;;;;;;13.76;nan;98712.47;5036643;28;20212;-71
2022/09/20 12:08:01;;;;;;;5.07;1.60;;;;;;;13.81;nan;98701.94;5036540;28;20186;-71
2022/09/20 12:10:34;;;;;;;3.90;1.40;;;;;;;13.67;nan;98701.28;5036287;28;20230;-71
2022/09/20 12:13:04;;;;;;;8.60;1.70;;;;;;;13.69;nan;98701.03;5020025;28;20210;-72
2022/09/20 12:15:34;;;;;;;4.27;1.60;;;;;;;13.54;nan;98693.41;5036486;28;20602;-72
2022/09/20 12:18:07;;;;;;;6.43;1.40;;;;;;;13.68;nan;98686.06;5036115;28;20224;-71
2022/09/20 12:20:33;;;;;;;5.83;1.73;;;;;;;13.92;nan;98680.63;5035976;28;20230;-71
2022/09/20 12:23:37;;;;;;;4.60;1.40;;;;;;;13.85;nan;98687.09;5036216;28;20259;-71
2022/09/20 12:26:12;;;;;;;5.83;1.27;;;;;;;13.84;nan;98688.94;5035767;28;20669;-71
2022/09/20 12:28:42;;;;;;;3.43;1.30;;;;;;;13.79;nan;98686.13;5036099;28;20295;-72
2022/09/20 12:31:18;;;;;;;3.70;1.47;;;;;;;14.09;nan;98686.97;5035409;28;20713;-72
2022/09/20 12:34:24;;;;;;;3.83;1.67;;;;;;;14.30;nan;98681.16;5035651;28;20672;-71
2022/09/20 12:36:53;;;;;;;8.77;1.53;;;;;;;14.45;nan;98676.22;5036466;28;20276;-71
2022/09/20 12:39:27;;;;;;;5.50;1.53;;;;;;;14.64;nan;98675.09;5035775;28;20240;-71
2022/09/20 12:42:10;;;;;;;3.07;1.57;;;;;;;14.41;nan;98676.88;5035841;28;20204;-71
2022/09/20 12:44:46;;;;;;;4.40;1.70;;;;;;;14.45;nan;98676.22;5036190;28;20190;-71
2022/09/20 12:47:12;;;;;;;5.70;1.27;;;;;;;14.46;nan;98677.84;5035224;28;20209;-71
2022/09/20 12:52:52;;;;;;;1.70;1.10;;;;;;;14.68;nan;98675.44;5035774;28;20177;-71
2022/09/20 12:55:28;;;;;;;2.63;1.20;;;;;;;14.88;nan;98673.28;5035294;28;20597;-71
2022/09/20 12:58:03;;;;;;;4.83;1.40;;;;;;;14.26;nan;98673.81;5035854;28;20306;-71
2022/09/20 13:00:30;;;;;;;2.77;1.27;;;;;;;14.68;nan;98681.63;5033759;28;20731;-72
2022/09/20 13:02:59;;;;;;;2.13;1.10;;;;;;;14.80;nan;98673.63;5035076;28;20739;-71
2022/09/20 13:05:40;;;;;;;1.77;1.10;;;;;;;14.57;nan;98669.03;5035300;28;20213;-71
2022/09/20 13:08:25;;;;;;;4.30;1.47;;;;;;;14.69;nan;98669.03;5035060;28;20645;-71
2022/09/20 13:11:08;;;;;;;2.47;1.30;;;;;;;14.97;nan;98664.66;5033629;28;20727;-71